createdAt,value
2019-05-16T00:00:49.583Z,54.61
2019-05-16T00:01:48.982Z,54.61
2019-05-16T00:02:48.974Z,54.33
2019-05-16T00:03:49.160Z,54.41
2019-05-16T00:04:48.943Z,54.82
2019-05-16T00:05:54.144Z,55.56
2019-05-16T00:06:49.919Z,54.23
2019-05-16T00:07:49.296Z,54.44
2019-05-16T00:08:48.899Z,54.51
2019-05-16T00:09:48.889Z,54.95
2019-05-16T00:10:48.874Z,54.10
2019-05-16T00:11:48.919Z,55.05
2019-05-16T00:12:48.866Z,54.44
2019-05-16T00:13:49.078Z,54.61
2019-05-16T00:14:49.089Z,54.95
2019-05-16T00:15:48.824Z,55.77
2019-05-16T00:16:48.807Z,55.56
2019-05-16T00:17:49.078Z,55.56
2019-05-16T00:18:48.786Z,55.05
2019-05-16T00:19:48.772Z,55.05
2019-05-16T00:20:49.235Z,55.26
2019-05-16T00:21:48.888Z,55.87
2019-05-16T00:22:48.750Z,55.15
2019-05-16T00:23:48.824Z,55.66
2019-05-16T00:24:48.866Z,56.41
2019-05-16T00:25:48.707Z,56.28
2019-05-16T00:26:48.725Z,56.28
2019-05-16T00:27:48.691Z,56.79
2019-05-16T00:28:48.724Z,56.49
2019-05-16T00:29:48.874Z,56.28
2019-05-16T00:30:48.856Z,56.59
2019-05-16T00:31:48.761Z,57.10
2019-05-16T00:32:48.635Z,56.59
2019-05-16T00:33:48.878Z,57.00
2019-05-16T00:34:48.602Z,56.71
2019-05-16T00:36:01.064Z,56.10
2019-05-16T00:36:49.582Z,56.92
2019-05-16T00:37:48.670Z,56.49
2019-05-16T00:38:48.691Z,56.71
2019-05-16T00:39:48.552Z,56.41
2019-05-16T00:40:48.794Z,56.38
2019-05-16T00:41:48.523Z,57.20
2019-05-16T00:42:49.312Z,56.92
2019-05-16T00:43:48.772Z,56.00
2019-05-16T00:44:48.489Z,56.38
2019-05-16T00:45:48.769Z,56.38
2019-05-16T00:46:48.687Z,55.98
2019-05-16T00:47:48.464Z,56.38
2019-05-16T00:48:48.756Z,56.28
2019-05-16T00:49:48.433Z,56.20
2019-05-16T00:50:48.423Z,55.77
2019-05-16T00:51:48.414Z,56.00
2019-05-16T00:52:48.917Z,56.18
2019-05-16T00:53:48.497Z,56.69
2019-05-16T00:54:48.692Z,56.69
2019-05-16T00:55:48.364Z,56.20
2019-05-16T00:56:48.773Z,56.62
2019-05-16T00:57:48.392Z,56.00
2019-05-16T00:58:48.535Z,55.38
2019-05-16T00:59:48.593Z,56.20
2019-05-16T01:00:49.943Z,57.03
2019-05-16T01:01:50.032Z,57.13
2019-05-16T01:02:48.686Z,56.10
2019-05-16T01:03:48.495Z,56.20
2019-05-16T01:04:48.733Z,56.92
2019-05-16T01:05:48.287Z,56.10
2019-05-16T01:06:48.501Z,56.82
2019-05-16T01:07:48.270Z,56.10
2019-05-16T01:08:48.910Z,57.03
2019-05-16T01:09:48.787Z,57.33
2019-05-16T01:10:51.344Z,56.71
2019-05-16T01:11:48.623Z,57.03
2019-05-16T01:12:48.217Z,56.92
2019-05-16T01:13:48.723Z,57.03
2019-05-16T01:14:48.149Z,57.64
2019-05-16T01:15:48.575Z,57.13
2019-05-16T01:16:48.792Z,57.13
2019-05-16T01:17:48.484Z,57.54
2019-05-16T01:18:48.755Z,56.92
2019-05-16T01:19:48.511Z,57.03
2019-05-16T01:20:48.361Z,58.26
2019-05-16T01:21:48.426Z,58.77
2019-05-16T01:22:49.000Z,58.97
2019-05-16T01:23:48.316Z,57.95
2019-05-16T01:24:49.242Z,58.46
2019-05-16T01:25:48.566Z,58.87
2019-05-16T01:26:48.460Z,58.67
2019-05-16T01:27:48.000Z,58.46
2019-05-16T01:28:48.488Z,56.82
2019-05-16T01:29:47.978Z,58.05
2019-05-16T01:30:48.788Z,58.46
2019-05-16T01:31:48.360Z,56.92
2019-05-16T01:32:49.203Z,57.54
2019-05-16T01:33:47.955Z,58.05
2019-05-16T01:34:48.382Z,57.13
2019-05-16T01:35:47.911Z,58.05
2019-05-16T01:36:48.594Z,57.13
2019-05-16T01:37:48.748Z,56.92
2019-05-16T01:38:48.206Z,57.03
2019-05-16T01:39:48.389Z,57.23
2019-05-16T01:40:49.091Z,57.43
2019-05-16T01:41:48.137Z,57.13
2019-05-16T01:42:48.955Z,57.13
2019-05-16T01:43:48.372Z,57.33
2019-05-16T01:44:48.680Z,57.13
2019-05-16T01:45:48.646Z,57.33
2019-05-16T01:46:48.133Z,57.23
2019-05-16T01:47:48.341Z,57.84
2019-05-16T01:48:48.501Z,57.03
2019-05-16T01:49:48.729Z,58.26
2019-05-16T01:50:48.229Z,57.95
2019-05-16T01:51:48.429Z,57.03
2019-05-16T01:52:48.766Z,58.46
2019-05-16T01:53:48.793Z,57.75
2019-05-16T01:54:48.178Z,58.03
2019-05-16T01:55:48.809Z,58.12
2019-05-16T01:56:48.087Z,57.92
2019-05-16T01:57:48.206Z,58.36
2019-05-16T01:58:49.041Z,58.54
2019-05-16T01:59:48.571Z,58.12
2019-05-16T02:00:58.131Z,58.44
2019-05-16T02:01:48.615Z,58.12
2019-05-16T02:02:48.745Z,57.92
2019-05-16T02:03:48.167Z,58.46
2019-05-16T02:04:48.537Z,57.92
2019-05-16T02:05:48.104Z,58.23
2019-05-16T02:06:53.722Z,58.03
2019-05-16T02:07:48.559Z,58.23
2019-05-16T02:08:48.671Z,58.84
2019-05-16T02:09:47.758Z,58.64
2019-05-16T02:10:48.062Z,58.74
2019-05-16T02:11:48.124Z,58.44
2019-05-16T02:12:49.007Z,58.44
2019-05-16T02:13:48.528Z,58.44
2019-05-16T02:14:48.114Z,58.54
2019-05-16T02:15:48.853Z,58.12
2019-05-16T02:16:47.793Z,58.74
2019-05-16T06:24:30.538Z,50.34
2019-05-16T06:25:31.465Z,50.65
2019-05-16T06:26:30.371Z,50.65
2019-05-16T06:27:30.364Z,49.63
2019-05-16T06:28:30.759Z,50.14
2019-05-16T06:29:30.982Z,50.04
2019-05-16T06:30:30.578Z,50.14
2019-05-16T06:31:31.332Z,49.02
2019-05-16T06:32:30.434Z,49.33
2019-05-16T06:33:30.545Z,49.73
2019-05-16T06:34:30.295Z,49.73
2019-05-16T06:35:30.063Z,49.43
2019-05-16T06:36:30.578Z,49.22
2019-05-16T06:37:30.926Z,49.33
2019-05-16T06:38:30.107Z,50.55
2019-05-16T06:39:41.277Z,50.95
2019-05-16T06:40:30.788Z,49.25
2019-05-16T06:41:30.448Z,49.53
2019-05-16T06:42:30.090Z,49.76
2019-05-16T06:43:30.232Z,50.47
2019-05-16T06:44:30.847Z,50.78
2019-05-16T06:45:31.982Z,50.57
2019-05-16T06:46:30.692Z,51.18
2019-05-16T06:47:30.520Z,50.90
2019-05-16T06:48:30.340Z,50.70
2019-05-16T06:49:30.371Z,50.59
2019-05-16T06:50:29.841Z,51.13
2019-05-16T06:51:30.586Z,51.00
2019-05-16T06:52:30.155Z,51.74
2019-05-16T06:53:29.989Z,51.74
2019-05-16T06:54:29.983Z,51.15
2019-05-16T06:55:29.719Z,51.74
2019-05-16T06:56:30.884Z,51.74
2019-05-16T06:57:30.212Z,51.84
2019-05-16T06:58:30.272Z,52.25
2019-05-16T06:59:29.810Z,51.94
2019-05-16T07:00:30.232Z,51.97
2019-05-16T07:01:29.808Z,52.45
2019-05-16T07:02:33.670Z,53.78
2019-05-16T07:03:30.851Z,52.17
2019-05-16T07:04:30.514Z,52.68
2019-05-16T07:05:29.990Z,52.68
2019-05-16T07:06:48.499Z,52.78
2019-05-16T07:07:30.847Z,52.86
2019-05-16T07:08:30.983Z,53.50
2019-05-16T07:09:30.127Z,52.78
2019-05-16T07:10:30.639Z,52.25
2019-05-16T07:11:30.653Z,52.83
2019-05-16T07:12:33.379Z,53.44
2019-05-16T07:13:30.454Z,53.63
2019-05-16T07:14:31.312Z,53.50
2019-05-16T07:15:29.837Z,52.17
2019-05-16T07:16:29.990Z,51.03
2019-05-16T07:17:30.659Z,50.42
2019-05-16T07:18:30.943Z,50.32
2019-05-16T07:19:30.176Z,50.20
2019-05-16T07:20:30.161Z,49.99
2019-05-16T07:21:31.251Z,49.97
2019-05-16T07:22:31.232Z,49.16
2019-05-16T07:23:29.863Z,48.75
2019-05-16T07:24:30.536Z,47.61
2019-05-16T07:25:30.083Z,47.91
2019-05-16T07:26:30.971Z,48.83
2019-05-16T07:27:30.921Z,47.71
2019-05-16T07:28:30.055Z,47.30
2019-05-16T07:29:30.853Z,48.52
2019-05-16T07:30:30.297Z,47.61
2019-05-16T07:31:30.051Z,47.20
2019-05-16T07:32:30.255Z,47.20
2019-05-16T07:33:31.163Z,47.51
2019-05-16T07:34:31.191Z,47.00
2019-05-16T07:35:30.781Z,47.30
2019-05-16T07:36:31.338Z,47.61
2019-05-16T07:37:31.448Z,46.70
2019-05-16T07:38:30.966Z,46.90
2019-05-16T07:39:30.740Z,46.39
2019-05-16T07:40:30.852Z,46.49
2019-05-16T07:41:31.079Z,46.59
2019-05-16T07:42:30.774Z,46.37
2019-05-16T07:43:30.852Z,45.17
2019-05-16T07:44:31.054Z,45.89
2019-05-16T07:45:30.880Z,45.78
2019-05-16T07:46:31.349Z,45.17
2019-05-16T07:47:30.967Z,46.09
2019-05-16T07:48:31.598Z,46.39
2019-05-16T07:49:30.466Z,46.59
2019-05-16T07:50:30.023Z,46.70
2019-05-16T07:51:31.064Z,45.98
2019-05-16T07:52:35.496Z,45.86
2019-05-16T07:53:32.967Z,46.98
2019-05-16T07:54:34.034Z,46.78
2019-05-16T07:55:30.856Z,46.06
2019-05-16T07:56:31.029Z,45.25
2019-05-16T07:57:30.643Z,45.36
2019-05-16T07:58:31.327Z,46.67
2019-05-16T07:59:29.935Z,45.15
2019-05-16T08:00:48.468Z,45.15
2019-05-16T08:01:30.654Z,45.07
2019-05-16T08:02:31.129Z,44.67
2019-05-16T08:03:30.339Z,44.56
2019-05-16T08:04:30.361Z,45.17
2019-05-16T08:05:29.910Z,45.29
2019-05-16T08:06:31.091Z,44.77
2019-05-16T08:07:33.176Z,44.68
2019-05-16T08:08:31.474Z,44.89
2019-05-16T08:09:30.625Z,44.68
2019-05-16T08:10:38.096Z,44.38
2019-05-16T08:11:30.413Z,45.50
2019-05-16T08:12:32.819Z,44.97
2019-05-16T08:13:30.858Z,44.48
2019-05-16T08:14:30.432Z,44.67
2019-05-16T08:15:30.414Z,45.07
2019-05-16T08:16:30.627Z,44.77
2019-05-16T08:17:31.294Z,44.85
2019-05-16T08:18:30.259Z,44.65
2019-05-16T08:19:30.561Z,44.42
2019-05-16T08:20:31.239Z,44.12
2019-05-16T08:21:30.847Z,43.91
2019-05-16T08:22:30.628Z,44.40
2019-05-16T08:23:30.553Z,43.89
2019-05-16T08:24:30.968Z,43.29
2019-05-16T08:25:31.230Z,43.29
2019-05-16T08:26:32.368Z,44.10
2019-05-16T08:28:30.850Z,42.07
2019-05-16T08:29:31.616Z,42.98
2019-05-16T08:30:31.609Z,43.71
2019-05-16T08:31:31.702Z,43.59
2019-05-16T08:32:31.243Z,42.78
2019-05-16T08:33:31.198Z,42.68
2019-05-16T08:34:31.966Z,42.68
2019-05-16T08:35:31.453Z,42.55
2019-05-16T08:36:30.729Z,42.35
2019-05-16T08:37:41.351Z,41.34
2019-05-16T08:38:30.892Z,41.34
2019-05-16T08:39:31.042Z,40.94
2019-05-16T08:40:31.339Z,41.72
2019-05-16T08:41:31.273Z,41.14
2019-05-16T08:42:32.143Z,40.53
2019-05-16T08:43:31.298Z,40.43
2019-05-16T08:44:31.664Z,40.65
2019-05-16T08:45:31.361Z,41.26
2019-05-16T08:46:31.923Z,40.34
2019-05-16T08:47:31.860Z,40.85
2019-05-16T08:48:31.438Z,41.48
2019-05-16T08:49:30.702Z,41.28
2019-05-16T08:50:10.797Z,43.79
2019-05-16T08:50:28.335Z,41.88
2019-05-16T08:51:32.805Z,41.19
2019-05-16T08:52:31.504Z,41.30
2019-05-16T08:53:31.411Z,42.51
2019-05-16T08:54:31.644Z,42.23
2019-05-16T08:55:31.164Z,42.02
2019-05-16T08:56:31.463Z,42.35
2019-05-16T08:57:32.529Z,43.35
2019-05-16T08:58:34.363Z,43.06
2019-05-16T08:59:33.577Z,43.87
2019-05-16T09:00:33.117Z,43.47
2019-05-16T09:01:34.477Z,43.16
2019-05-16T09:02:36.279Z,44.28
2019-05-16T09:03:32.068Z,43.99
2019-05-16T09:04:33.319Z,43.69
2019-05-16T09:05:31.467Z,44.30
2019-05-16T09:06:31.662Z,43.69
2019-05-16T09:07:31.598Z,43.69
2019-05-16T09:08:28.144Z,43.71
2019-05-16T09:09:41.663Z,44.22
2019-05-16T09:10:55.757Z,44.53
2019-05-16T09:11:39.131Z,44.95
2019-05-16T09:12:29.092Z,44.73
2019-05-16T09:13:28.100Z,45.67
2019-05-16T09:14:31.885Z,44.54
2019-05-16T09:15:29.055Z,45.03
2019-05-16T09:16:28.058Z,44.42
2019-05-16T09:17:28.044Z,44.63
2019-05-16T09:18:28.980Z,45.14
2019-05-16T09:19:28.011Z,44.53
2019-05-16T09:20:28.262Z,44.42
2019-05-16T09:21:27.997Z,44.63
2019-05-16T09:22:28.359Z,45.14
2019-05-16T09:23:27.971Z,45.03
2019-05-16T09:24:27.981Z,45.24
2019-05-16T09:25:27.948Z,45.54
2019-05-16T09:26:28.028Z,44.83
2019-05-16T09:27:27.927Z,45.21
2019-05-16T09:28:28.466Z,45.21
2019-05-16T09:29:27.899Z,45.42
2019-05-16T09:30:27.921Z,45.21
2019-05-16T09:31:27.881Z,44.40
2019-05-16T09:32:28.154Z,44.40
2019-05-16T09:33:27.861Z,44.81
2019-05-16T09:34:28.444Z,44.99
2019-05-16T09:35:28.146Z,45.50
2019-05-16T09:36:28.297Z,44.89
2019-05-16T09:37:27.818Z,44.99
2019-05-16T09:38:30.381Z,45.70
2019-05-16T09:39:28.105Z,44.87
2019-05-16T09:40:27.989Z,44.36
2019-05-16T09:41:46.270Z,45.48
2019-05-16T09:42:28.766Z,44.54
2019-05-16T09:43:28.287Z,44.97
2019-05-16T09:44:27.734Z,44.44
2019-05-16T09:45:27.721Z,44.74
2019-05-16T09:46:27.731Z,44.62
2019-05-16T09:47:28.392Z,44.62
2019-05-16T09:48:30.538Z,44.34
2019-05-16T09:49:29.306Z,44.82
2019-05-16T09:50:27.664Z,44.22
2019-05-16T09:51:27.654Z,44.32
2019-05-16T09:52:27.650Z,44.01
2019-05-16T09:53:27.978Z,44.70
2019-05-16T09:54:27.618Z,44.42
2019-05-16T09:55:27.607Z,43.89
2019-05-16T09:56:27.594Z,43.79
2019-05-16T09:57:27.940Z,43.51
2019-05-16T09:58:28.096Z,43.99
2019-05-16T09:59:27.567Z,43.79
2019-05-16T10:00:27.549Z,44.20
2019-05-16T10:01:27.774Z,43.47
2019-05-16T10:02:27.615Z,43.47
2019-05-16T10:03:27.520Z,43.16
2019-05-16T10:04:27.506Z,42.54
2019-05-16T10:05:27.506Z,42.52
2019-05-16T10:06:27.744Z,42.21
2019-05-16T10:07:28.464Z,41.89
2019-05-16T10:08:27.465Z,41.58
2019-05-16T10:09:41.162Z,41.85
2019-05-16T10:10:28.441Z,41.14
2019-05-16T10:11:31.005Z,41.52
2019-05-16T10:12:27.425Z,41.00
2019-05-16T10:13:27.994Z,41.30
2019-05-16T10:14:27.428Z,40.28
2019-05-16T10:15:27.389Z,39.06
2019-05-16T10:16:27.639Z,39.75
2019-05-16T10:17:27.456Z,40.34
2019-05-16T10:18:27.959Z,39.43
2019-05-16T10:19:27.687Z,38.73
2019-05-16T10:20:27.547Z,38.71
2019-05-16T10:21:27.380Z,38.60
2019-05-16T10:22:27.406Z,38.57
2019-05-16T10:23:28.433Z,38.05
2019-05-16T10:24:27.286Z,38.45
2019-05-16T10:25:27.878Z,37.54
2019-05-16T10:26:27.933Z,38.83
2019-05-16T10:27:27.290Z,37.43
2019-05-16T10:28:27.814Z,37.14
2019-05-16T10:29:27.623Z,37.93
2019-05-16T10:30:27.220Z,37.73
2019-05-16T10:31:41.607Z,37.63
2019-05-16T10:32:28.218Z,37.39
2019-05-16T10:33:27.726Z,37.47
2019-05-16T10:34:27.175Z,37.05
2019-05-16T10:35:29.970Z,37.46
2019-05-16T10:36:28.183Z,36.43
2019-05-16T10:37:27.168Z,34.80
2019-05-16T10:38:28.544Z,35.69
2019-05-16T10:39:27.125Z,35.80
2019-05-16T10:40:27.500Z,35.28
2019-05-16T10:41:27.105Z,35.38
2019-05-16T10:42:28.937Z,35.18
2019-05-16T10:43:27.087Z,34.36
2019-05-16T10:44:28.052Z,34.28
2019-05-16T10:45:27.376Z,34.38
2019-05-16T10:46:27.180Z,34.78
2019-05-16T10:47:31.009Z,34.17
2019-05-16T10:48:27.237Z,34.29
2019-05-16T10:49:36.942Z,35.60
2019-05-16T10:50:28.085Z,35.28
2019-05-16T10:51:27.146Z,34.28
2019-05-16T10:52:27.176Z,35.50
2019-05-16T10:53:57.107Z,35.60
2019-05-16T10:54:28.097Z,35.78
2019-05-16T10:55:27.761Z,35.78
2019-05-16T10:56:26.938Z,35.18
2019-05-16T10:57:29.639Z,35.76
2019-05-16T10:58:36.414Z,35.75
2019-05-16T11:00:57.606Z,34.19
2019-05-16T11:01:31.045Z,33.00
2019-05-16T11:02:27.566Z,33.39
2019-05-16T11:03:27.633Z,34.69
2019-05-16T11:04:37.625Z,34.58
2019-05-16T11:05:33.711Z,33.38
2019-05-16T11:06:29.286Z,33.58
2019-05-16T11:07:29.610Z,33.18
2019-05-16T11:08:26.824Z,33.59
2019-05-16T11:09:26.802Z,33.09
2019-05-16T11:10:29.564Z,33.00
2019-05-16T11:11:27.489Z,33.70
2019-05-16T11:12:45.321Z,33.70
2019-05-16T11:13:28.207Z,34.08
2019-05-16T11:14:28.102Z,33.47
2019-05-16T11:15:27.822Z,33.56
2019-05-16T11:16:27.442Z,33.47
2019-05-16T11:17:27.874Z,33.65
2019-05-16T11:18:27.338Z,32.93
2019-05-16T11:19:28.234Z,32.30
2019-05-16T11:20:27.075Z,32.29
2019-05-16T11:21:26.987Z,31.79
2019-05-16T11:22:29.535Z,31.22
2019-05-16T11:23:30.941Z,32.42
2019-05-16T11:24:29.012Z,32.42
2019-05-16T11:25:31.815Z,32.52
2019-05-16T11:26:30.247Z,31.90
2019-05-16T11:27:26.617Z,31.81
2019-05-16T11:28:26.651Z,31.29
2019-05-16T11:29:26.596Z,31.48
2019-05-16T11:30:28.089Z,31.36
2019-05-16T11:31:26.881Z,31.45
2019-05-16T11:32:27.068Z,32.03
2019-05-16T11:33:28.190Z,30.22
2019-05-16T11:34:26.783Z,30.11
2019-05-16T11:35:27.292Z,29.61
2019-05-16T11:36:26.878Z,29.88
2019-05-16T11:37:27.907Z,30.07
2019-05-16T11:38:26.513Z,29.67
2019-05-16T11:39:26.493Z,28.56
2019-05-16T11:40:26.485Z,28.86
2019-05-16T11:41:27.534Z,28.94
2019-05-16T11:42:27.986Z,29.94
2019-05-16T11:43:27.835Z,29.94
2019-05-16T11:44:28.721Z,28.94
2019-05-16T11:45:27.183Z,29.63
2019-05-16T11:46:28.213Z,29.13
2019-05-16T11:47:27.223Z,29.63
2019-05-16T11:48:29.516Z,29.23
2019-05-16T11:49:27.544Z,30.12
2019-05-16T11:50:28.028Z,29.82
2019-05-16T11:51:27.182Z,28.53
2019-05-16T11:52:26.378Z,28.73
2019-05-16T11:53:28.180Z,29.63
2019-05-16T11:54:26.669Z,29.61
2019-05-16T11:55:33.785Z,29.41
2019-05-16T11:56:27.334Z,28.90
2019-05-16T11:57:26.325Z,28.41
2019-05-16T11:58:26.698Z,28.92
2019-05-16T11:59:26.315Z,28.22
2019-05-16T12:00:30.115Z,29.20
2019-05-16T12:01:27.620Z,28.32
2019-05-16T12:02:27.875Z,28.83
2019-05-16T12:03:28.154Z,29.24
2019-05-16T12:04:28.069Z,29.74
2019-05-16T12:05:27.103Z,29.64
2019-05-16T12:06:26.798Z,30.02
2019-05-16T12:07:33.405Z,29.33
2019-05-16T12:08:27.214Z,29.52
2019-05-16T12:09:33.365Z,29.51
2019-05-16T12:10:27.203Z,29.52
2019-05-16T12:11:27.495Z,29.63
2019-05-16T12:12:27.150Z,29.92
2019-05-16T12:13:31.779Z,29.33
2019-05-16T12:14:27.317Z,29.41
2019-05-16T12:15:27.337Z,29.41
2019-05-16T12:16:27.531Z,29.41
2019-05-16T12:17:28.021Z,29.91
2019-05-16T12:18:26.543Z,29.61
2019-05-16T12:19:34.731Z,30.00
2019-05-16T12:20:27.492Z,30.10
2019-05-16T12:21:27.481Z,29.61
2019-05-16T12:22:26.827Z,29.63
2019-05-16T12:23:27.609Z,29.94
2019-05-16T12:24:33.144Z,30.35
2019-05-16T12:25:27.432Z,30.07
2019-05-16T12:26:28.144Z,30.38
2019-05-16T12:27:32.783Z,31.78
2019-05-16T12:28:27.214Z,32.49
2019-05-16T12:29:28.092Z,31.78
2019-05-16T12:30:25.998Z,31.96
2019-05-16T12:31:25.987Z,32.17
2019-05-16T12:32:27.651Z,32.06
2019-05-16T12:33:27.446Z,32.46
2019-05-16T12:34:25.967Z,31.95
2019-05-16T12:35:27.725Z,32.54
2019-05-16T12:36:26.796Z,31.77
2019-05-16T12:37:27.606Z,32.94
2019-05-16T12:38:27.639Z,32.35
2019-05-16T12:39:26.851Z,32.75
2019-05-16T12:40:26.847Z,33.04
2019-05-16T12:41:28.520Z,32.54
2019-05-16T12:42:27.086Z,32.36
2019-05-16T12:43:44.147Z,32.97
2019-05-16T12:44:27.028Z,32.49
2019-05-16T12:45:27.543Z,33.02
2019-05-16T12:46:27.178Z,33.83
2019-05-16T12:47:25.826Z,33.05
2019-05-16T12:48:25.833Z,34.27
2019-05-16T12:49:25.820Z,34.66
2019-05-16T12:50:28.734Z,33.58
2019-05-16T12:51:26.439Z,34.59
2019-05-16T12:52:27.070Z,35.59
2019-05-16T12:53:31.682Z,35.29
2019-05-16T12:54:27.566Z,35.41
2019-05-16T12:55:27.121Z,36.01
2019-05-16T12:56:27.218Z,35.81
2019-05-16T12:57:27.709Z,35.51
2019-05-16T12:58:37.534Z,35.72
2019-05-16T12:59:26.836Z,35.93
2019-05-16T13:00:27.622Z,36.72
2019-05-16T13:01:30.480Z,36.63
2019-05-16T13:02:27.329Z,37.74
2019-05-16T13:03:27.751Z,37.54
2019-05-16T13:04:27.924Z,37.56
2019-05-16T13:05:26.963Z,37.36
2019-05-16T13:06:27.767Z,37.26
2019-05-16T13:07:26.938Z,37.27
2019-05-16T13:08:26.806Z,37.27
2019-05-16T13:09:26.525Z,37.90
2019-05-16T13:10:26.981Z,38.29
2019-05-16T13:11:27.009Z,38.40
2019-05-16T13:12:27.070Z,38.59
2019-05-16T13:13:27.766Z,38.31
2019-05-16T13:14:27.950Z,38.42
2019-05-16T13:15:27.331Z,38.40
2019-05-16T13:16:28.075Z,38.09
2019-05-16T13:17:27.497Z,38.11
2019-05-16T13:18:27.561Z,38.20
2019-05-16T13:19:31.896Z,38.51
2019-05-16T13:20:26.795Z,38.11
2019-05-16T13:21:27.616Z,39.22
2019-05-16T13:22:27.573Z,38.83
2019-05-16T13:23:26.924Z,38.83
2019-05-16T13:24:27.834Z,39.43
2019-05-16T13:25:27.300Z,39.05
2019-05-16T13:26:25.413Z,39.73
2019-05-16T13:27:25.412Z,39.33
2019-05-16T13:28:25.387Z,39.63
2019-05-16T13:29:27.464Z,39.41
2019-05-16T13:30:26.852Z,39.81
2019-05-16T13:31:28.589Z,39.79
2019-05-16T13:32:27.070Z,40.00
2019-05-16T13:33:27.129Z,38.98
2019-05-16T13:34:28.077Z,38.84
2019-05-16T13:35:27.050Z,38.00
2019-05-16T13:36:27.196Z,37.30
2019-05-16T13:37:27.640Z,37.30
2019-05-16T13:38:27.902Z,37.40
2019-05-16T13:39:27.504Z,37.70
2019-05-16T13:40:27.480Z,37.60
2019-05-16T13:41:27.056Z,36.79
2019-05-16T13:42:27.200Z,36.97
2019-05-16T13:43:26.997Z,37.27
2019-05-16T13:44:27.482Z,36.37
2019-05-16T13:45:27.185Z,36.97
2019-05-16T13:46:26.544Z,36.85
2019-05-16T13:47:26.867Z,37.45
2019-05-16T13:48:26.769Z,35.84
2019-05-16T13:49:26.821Z,36.44
2019-05-16T13:50:27.308Z,36.10
2019-05-16T13:51:26.644Z,35.10
2019-05-16T13:52:28.090Z,34.76
2019-05-16T13:53:27.154Z,34.25
2019-05-16T13:54:26.951Z,33.45
2019-05-16T13:55:27.146Z,34.55
2019-05-16T13:56:27.313Z,34.56
2019-05-16T13:57:28.036Z,34.28
2019-05-16T13:58:28.103Z,34.30
2019-05-16T13:59:27.839Z,36.68
2019-05-16T14:00:27.754Z,35.80
2019-05-16T14:01:27.627Z,35.92
2019-05-16T14:02:26.681Z,37.55
2019-05-16T14:03:27.516Z,37.25
2019-05-16T14:04:26.418Z,36.65
2019-05-16T14:05:26.768Z,36.89
2019-05-16T14:06:24.978Z,37.40
2019-05-16T14:07:24.970Z,37.90
2019-05-16T14:08:26.816Z,38.52
2019-05-16T14:09:26.834Z,38.04
2019-05-16T14:10:29.288Z,38.85
2019-05-16T14:11:24.924Z,39.78
2019-05-16T14:12:26.786Z,39.37
2019-05-16T14:13:24.914Z,40.00
2019-05-16T14:14:34.779Z,39.39
2019-05-16T14:15:27.034Z,40.50
2019-05-16T14:16:26.921Z,40.11
2019-05-16T14:17:27.323Z,40.93
2019-05-16T14:18:27.183Z,40.75
2019-05-16T14:19:27.322Z,41.46
2019-05-16T14:20:24.828Z,41.46
2019-05-16T14:21:24.842Z,42.18
2019-05-16T14:22:27.605Z,41.88
2019-05-16T14:23:28.091Z,41.89
2019-05-16T14:24:27.934Z,41.89
2019-05-16T14:25:24.790Z,42.91
2019-05-16T14:26:24.879Z,42.82
2019-05-16T14:27:26.883Z,42.82
2019-05-16T14:28:25.710Z,43.02
2019-05-16T14:29:24.729Z,43.22
2019-05-16T14:30:24.765Z,43.02
2019-05-16T14:31:24.730Z,42.60
2019-05-16T14:32:24.706Z,43.04
2019-05-16T14:33:24.687Z,43.14
2019-05-16T14:34:27.659Z,44.06
2019-05-16T14:35:26.676Z,43.66
2019-05-16T14:36:27.808Z,43.38
2019-05-16T14:37:26.779Z,43.88
2019-05-16T14:38:26.964Z,43.88
2019-05-16T14:39:28.078Z,44.20
2019-05-16T14:40:24.608Z,44.20
2019-05-16T14:41:24.638Z,44.12
2019-05-16T14:42:27.814Z,44.12
2019-05-16T14:43:27.024Z,44.53
2019-05-16T14:44:24.566Z,44.95
2019-05-16T14:45:26.377Z,45.07
2019-05-16T14:46:27.185Z,44.57
2019-05-16T14:47:26.975Z,45.78
2019-05-16T14:48:24.564Z,46.40
2019-05-16T14:49:24.513Z,46.80
2019-05-16T14:50:27.321Z,46.40
2019-05-16T14:51:27.283Z,47.00
2019-05-16T14:52:26.990Z,47.03
2019-05-16T14:53:28.197Z,46.62
2019-05-16T14:54:26.758Z,47.43
2019-05-16T14:55:27.262Z,46.93
2019-05-16T14:56:26.829Z,46.83
2019-05-16T14:57:24.444Z,46.75
2019-05-16T14:58:24.418Z,46.85
2019-05-16T14:59:26.848Z,46.67
2019-05-16T15:00:27.384Z,48.18
2019-05-16T15:01:26.606Z,48.18
2019-05-16T15:02:27.300Z,48.89
2019-05-16T15:03:27.128Z,48.30
2019-05-16T15:04:29.833Z,48.21
2019-05-16T15:05:25.406Z,48.91
2019-05-16T15:06:24.332Z,50.22
2019-05-16T15:07:24.319Z,48.81
2019-05-16T15:08:24.301Z,48.61
2019-05-16T15:09:24.289Z,48.81
2019-05-16T15:10:24.278Z,48.81
2019-05-16T15:11:24.311Z,49.21
2019-05-16T15:12:26.651Z,48.83
2019-05-16T15:13:24.245Z,49.04
2019-05-16T15:14:24.233Z,50.35
2019-05-16T15:15:27.793Z,49.64
2019-05-16T15:16:24.219Z,48.73
2019-05-16T15:17:24.198Z,49.33
2019-05-16T15:18:24.198Z,48.53
2019-05-16T15:19:24.179Z,49.87
2019-05-16T15:20:27.606Z,49.76
2019-05-16T15:21:24.164Z,49.66
2019-05-16T15:22:24.149Z,49.99
2019-05-16T15:23:24.141Z,49.89
2019-05-16T15:24:26.669Z,49.99
2019-05-16T15:25:26.433Z,50.62
2019-05-16T15:26:24.139Z,50.62
2019-05-16T15:27:26.242Z,50.52
2019-05-16T15:28:29.486Z,50.21
2019-05-16T15:29:27.005Z,50.72
2019-05-16T15:30:24.055Z,50.52
2019-05-16T15:31:24.044Z,51.25
2019-05-16T15:32:24.041Z,51.96
2019-05-16T15:33:24.020Z,51.86
2019-05-16T15:34:24.038Z,51.96
2019-05-16T15:35:24.001Z,51.25
2019-05-16T15:36:23.994Z,51.45
2019-05-16T15:37:23.997Z,51.65
2019-05-16T15:38:23.962Z,51.15
2019-05-16T15:39:23.962Z,51.55
2019-05-16T15:40:23.962Z,51.15
2019-05-16T15:41:23.933Z,51.78
2019-05-16T15:42:23.950Z,52.08
2019-05-16T15:43:23.908Z,51.88
2019-05-16T15:44:23.897Z,51.88
2019-05-16T15:45:35.673Z,52.08
2019-05-16T15:46:26.577Z,51.68
2019-05-16T15:47:23.883Z,52.19
2019-05-16T15:48:23.851Z,52.79
2019-05-16T15:49:26.408Z,52.39
2019-05-16T15:50:23.834Z,52.31
2019-05-16T15:51:23.819Z,52.31
2019-05-16T15:52:23.844Z,52.61
2019-05-16T15:53:23.813Z,52.31
2019-05-16T15:54:23.789Z,53.22
2019-05-16T15:55:23.777Z,53.25
2019-05-16T15:56:23.771Z,53.14
2019-05-16T15:57:23.769Z,53.27
2019-05-16T15:58:23.743Z,52.86
2019-05-16T15:59:23.735Z,53.88
2019-05-16T16:00:23.733Z,54.59
2019-05-16T16:01:23.711Z,54.49
2019-05-16T16:02:23.709Z,56.21
2019-05-16T16:03:23.713Z,56.44
2019-05-16T16:04:23.679Z,56.34
2019-05-16T16:05:23.670Z,57.55
2019-05-16T16:06:23.655Z,57.96
2019-05-16T16:07:23.677Z,57.86
2019-05-16T16:08:23.633Z,57.04
2019-05-16T16:09:23.620Z,56.95
2019-05-16T16:10:23.622Z,56.34
2019-05-16T16:11:23.602Z,54.92
2019-05-16T16:12:23.623Z,55.73
2019-05-16T16:13:23.593Z,55.02
2019-05-16T16:14:23.566Z,55.96
2019-05-16T16:15:23.555Z,55.35
2019-05-16T16:16:23.544Z,55.76
2019-05-16T16:17:23.545Z,55.35
2019-05-16T16:18:23.526Z,55.35
2019-05-16T16:19:23.536Z,55.65
2019-05-16T16:20:23.528Z,55.45
2019-05-16T16:21:23.492Z,56.05
2019-05-16T16:22:23.493Z,56.70
2019-05-16T16:23:23.482Z,56.18
2019-05-16T16:24:23.456Z,56.16
2019-05-16T16:25:23.462Z,56.49
2019-05-16T16:26:23.456Z,56.39
2019-05-16T16:27:23.434Z,55.68
2019-05-16T16:28:23.407Z,56.29
2019-05-16T16:29:23.399Z,56.09
2019-05-16T16:30:23.435Z,55.47
2019-05-16T16:31:23.376Z,56.18
2019-05-16T16:32:23.364Z,56.09
2019-05-16T16:33:29.052Z,55.96
2019-05-16T16:34:26.644Z,56.26
2019-05-16T16:35:23.330Z,55.58
2019-05-16T16:36:23.323Z,55.55
2019-05-16T16:37:23.307Z,55.88
2019-05-16T16:38:23.308Z,55.27
2019-05-16T16:39:23.292Z,55.58
2019-05-16T16:40:23.275Z,55.58
2019-05-16T16:41:23.268Z,55.78
2019-05-16T16:42:23.257Z,56.18
2019-05-16T16:43:24.305Z,56.09
2019-05-16T16:44:23.228Z,56.31
2019-05-16T16:45:23.223Z,56.52
2019-05-16T16:46:23.222Z,56.62
2019-05-16T16:47:23.196Z,56.52
2019-05-16T16:48:23.192Z,56.31
2019-05-16T16:49:23.179Z,56.62
2019-05-16T16:50:23.162Z,56.62
2019-05-16T16:51:23.152Z,56.31
2019-05-16T16:52:23.159Z,57.33
2019-05-16T16:53:23.142Z,56.52
2019-05-16T16:54:23.130Z,56.52
2019-05-16T16:55:23.117Z,56.65
2019-05-16T16:56:23.098Z,56.41
2019-05-16T16:57:23.089Z,56.41
2019-05-16T16:58:23.099Z,56.44
2019-05-16T16:59:23.066Z,57.23
2019-05-16T17:00:23.065Z,57.23